• Join FlightAware (Why Join?)
  • Login
  • US Flag 
05:58PM EDT


 

Airport Tracker/Info


-or-


 

Live Flight TrackerFlight Track Log ✈ C-GMYM ✈ 13-Aug-2013 ✈ CZBA - KDET

Flight Track Log - Related Links

Times and Time Zones

All times are in EDT time to prevent confusion due to time zone crossing. See the C-GMYM flight status page for this flight to view local times or setup timezone preferences in your user account.

Time Position Orientation Groundspeed Altitude Reporting Facility
EDT Latitude Longitude Course Direction KTS MPH feet Rate Location/Type
10:39AM 43.4333 -79.8333 295° West 70 81 1,200  Level Toronto Center
10:40AM 43.4500 -79.8833 295° West 100 115 2,100 840 Climbing Toronto Center
10:41AM 43.4500 -79.9167 270° West 110 127 2,900 780 Climbing Toronto Center
10:42AM 43.4333 -79.9500 235° Southwest 130 150 3,700 540 Climbing Toronto Center
10:43AM 43.4167 -80.0000 245° Southwest 130 150 4,000 120 Climbing Toronto Center
10:44AM 43.4000 -80.0667 251° West 150 173 4,000  Level Toronto Center
10:45AM 43.3833 -80.1167 245° Southwest 160 184 4,000  Level Toronto Center
10:46AM 43.3667 -80.1667 245° Southwest 150 173 4,000  Level Toronto Center
10:47AM 43.3500 -80.2333 251° West 150 173 4,000  Level Toronto Center
10:48AM 43.3333 -80.2667 236° Southwest 150 173 4,000  Level Toronto Center
10:49AM 43.3167 -80.3167 245° Southwest 150 173 4,000  Level Toronto Center
10:50AM 43.2833 -80.3833 236° Southwest 150 173 4,000  Level Toronto Center
10:51AM 43.2667 -80.4333 245° Southwest 160 184 4,000  Level Toronto Center
10:52AM 43.2500 -80.4833 245° Southwest 160 184 4,100  Climbing Toronto Center
10:53AM 43.2333 -80.5500 251° West 150 173 4,100  Level Toronto Center
10:54AM 43.2167 -80.6000 245° Southwest 150 173 4,100  Level Toronto Center
10:55AM 43.2000 -80.6333 236° Southwest 150 173 4,100  Level Toronto Center
10:56AM 43.1833 -80.7000 251° West 150 173 4,100  Level Toronto Center
10:57AM 43.1667 -80.7500 245° Southwest 160 184 4,100  Level Toronto Center
10:58AM 43.1500 -80.8000 245° Southwest 150 173 4,100  Level Toronto Center
10:59AM 43.1167 -80.8667 236° Southwest 150 173 4,100  Level Toronto Center
11:00AM 43.1000 -80.9167 245° Southwest 150 173 4,100  Level Toronto Center
11:01AM 43.0833 -80.9500 236° Southwest 160 184 4,100  Level Toronto Center
11:02AM 43.0667 -81.0333 255° West 160 184 4,100  Level Toronto Center
11:03AM 43.0500 -81.0667 236° Southwest 160 184 4,100  Level Toronto Center
11:04AM 43.0167 -81.1167 228° Southwest 160 184 4,100  Level Toronto Center
11:05AM 43.0167 -81.1833 270° West 160 184 4,100  Level Toronto Center
11:06AM 43.0000 -81.2333 246° West 150 173 4,100  Level Toronto Center
11:07AM 42.9833 -81.3000 251° West 160 184 4,100  Level Toronto Center
11:08AM 42.9667 -81.3500 246° West 160 184 4,100  Level Toronto Center
11:09AM 42.9667 -81.4167 270° West 160 184 4,100 -60 Level Toronto Center
11:10AM 42.9500 -81.4500 236° Southwest 160 184 4,000  Descending Toronto Center
11:11AM 42.9333 -81.5167 251° West 160 184 4,100  Climbing Toronto Center
11:12AM 42.9167 -81.5667 246° West 160 184 4,100  Level Toronto Center
11:13AM 42.9000 -81.6333 251° West 160 184 4,100  Level Toronto Center
11:14AM 42.9000 -81.6833 270° West 160 184 4,100  Level Toronto Center
11:15AM 42.8833 -81.7500 251° West 160 184 4,100  Level Toronto Center
11:16AM 42.8667 -81.8000 246° West 160 184 4,100  Level Toronto Center
11:17AM 42.8500 -81.8667 251° West 160 184 4,100  Level Toronto Center
11:18AM 42.8333 -81.9000 236° Southwest 160 184 4,100  Level Toronto Center
11:19AM 42.8167 -81.9667 251° West 160 184 4,100 -60 Level Toronto Center
11:20AM 42.8000 -82.0500 255° West 160 184 4,000 -60 Descending Toronto Center
11:21AM 42.7833 -82.0833 236° Southwest 160 184 4,000  Level Toronto Center
11:22AM 42.7667 -82.1500 251° West 160 184 4,000  Level Toronto Center
11:23AM 42.7500 -82.2000 246° West 170 196 4,000  Level Toronto Center
11:24AM 42.7333 -82.2667 251° West 170 196 4,000  Level Toronto Center
11:25AM 42.7333 -82.3333 270° West 170 196 4,000  Level Toronto Center
11:26AM 42.7167 -82.3833 246° West 170 196 4,000  Level Toronto Center
11:27AM 42.7000 -82.4500 251° West 170 196 4,000  Level Toronto Center
11:28AM 42.6833 -82.5167 251° West 170 196 4,000  Level Toronto Center
11:29AM 42.6658 -82.5794 249° West 179 206 4,100  Climbing Cleveland Center
11:30AM 42.6089 -82.6172 206° Southwest 180 207 4,100  Level Cleveland Center
11:31AM 42.5583 -82.6436 201° Southwest 182 209 4,100  Level Cleveland Center
11:32AM 42.5142 -82.6733 206° Southwest 182 209 4,100  Level Cleveland Center
11:33AM 42.4700 -82.7000 204° Southwest 181 208 4,100  Level Cleveland Center
11:34AM 42.4214 -82.7292 204° Southwest 178 205 4,100 -60 Level Cleveland Center
11:35AM 42.3750 -82.7558 203° Southwest 178 205 4,000 -360 Descending Cleveland Center
11:36AM 42.3306 -82.7936 212° Southwest 176 203 3,400 -480 Descending Cleveland Center
11:37AM 42.2861 -82.8258 208° Southwest 174 200 3,100 -180 Descending Cleveland Center
11:38AM 42.2625 -82.8642 230° Southwest 146 168 3,100  Level Cleveland Center
11:39AM 42.2911 -82.8906 326° Northwest 120 138 3,100  Level Cleveland Center
11:40AM 42.3156 -82.9167 322° Northwest 96 110 3,100 -360 Level Cleveland Center
11:41AM 42.3319 -82.9369 318° Northwest 79 91 2,400 -600 Descending Cleveland Center
11:42AM 42.3544 -82.9547 330° Northwest 90 104 2,000 -420 Descending Cleveland Center
11:43AM 42.3728 -82.9750 321° Northwest 87 100 1,600 -420 Descending Cleveland Center
11:44AM 42.3869 -82.9897 322° Northwest 87 100 1,200 -480 Descending Cleveland Center
11:46AM 42.4000 -83.0000 311° West  Level FlightAware Approximate